Fort Bidwell, California
Current Conditions -  °F | °C
As of 11:15 AM on Monday 20 Oct 2014 (Local Time) from KLKV Reporting Station
Clear Clear  
Wind Chill: 63°   Ceiling: Unl
Heat Index: 63°   Visibility: 10mi
Dew Point: 36°   Wind: 15mph
Humidity: 37%   Direction: 180°S
Pressure: 29.91"   Gusts: 24mph
Location:  41.86°N, 120.15°W
Report Text: KLKV 201815Z AUTO 18013G21KT 10SM CLR 17/02 A2991 RMK AO1
Loading
Personal Weather Stations






























Interactive Weather Map
Tropical Storm Tracking
New forecast layout! Learn more

10-Day Weather Forecast

Advertisements
Track Severe Weather on mobile